Portada
METAR-TAF:

METAR-TAF

Aeroports :

Mandalay, Myanmar

latitud: 21-59N, longitud: 096-06E, altitud: 74 m

Observació

L'informe es va fer fa 45 minuts, a les 00:30 UTC
Vent 2 kt del Nord
Temperatura 15°C
Humitat 88%
Pressió 1014 hPa
Visibilitat: 5000 m
boirina

METAR: VYMD 060030Z 36002KT 5000 BR NSC 15/13 Q1014

Hora: 07:45 (01:15 UTC)

Pronòstic

L'informe es va fer fa 2 hores i 15 minuts, a les 23:00 UTC
Pronòstic vàlid del 06 a les 00 UTC al 06 a les 24 UTC
Vent 5 kt del Nord-Oest
Visibilitat: 6000 m
Escasses núvols a una alçada de 2000 ft
Evolucionant progressivament
l' 06 a les 00 UTC al 06 a les 02 UTC
Vent 3 kt del Nord-Oest
Visibilitat: 5000 m
boirina
Temporalment
l' 06 a les 02 UTC al 06 a les 06 UTC
Vent 5 kt del Nord/Nord-Oest
Visibilitat: 6000 m
Escasses núvols a una alçada de 2000 ft

TAF: VYMD 052300Z 0600/0624 32005KT 6000 FEW020 BECMG 0600/0602 32003KT 5000 BR TEMPO 0602/0606 34005KT 6000 FEW020

Observacions i pronòstics meteorològics de més de 4000 aeroports (METAR i TAF).

Les estacions disponibles són els punts grocs i vermells al mapa.

Posi el ratolí al punt desitjat per veure el nom de l'estació.

Feu clic per veure les observacions i els pronòstics meteorològics.

Per canviar el mapa: feu clic els botons verds amb una creu de color negre per apropar; al botó verd amb un guió per allunyar la imatge; o en les fletxes verdes per a mapes adjacents.


METAR-TAF: